Terminal Aerodrome Forecast
Issued by NWS Paducah, KY

Home | Current Version | Previous Version | Text Only | Print | Product List | Glossary Off
Versions: 1 2 3 4 5 6 7 8 9 10 11 12 13 14

000
FTUS43 KPAH 252100 AAA
TAFEVV
TAF AMD
KEVV 252102Z 2521/2618 19006KT 5SM -RA BR OVC007
     FM260100 32014G22KT 6SM -RASN BR OVC007
     FM260500 33015G24KT P6SM BKN015=

USA.gov is the U.S. government's official web portal to all federal, state and local government web resources and services.